Time;durP1;ratioP1;P1;durP2;ratioP2;P2;SDS_P1;SDS_P2;PMS_P1;PMS_P2;Temp;Humidity;BMP_temperature;BMP_pressure;BME280_temperature;BME280_humidity;BME280_pressure;Samples;Min_cycle;Max_cycle;Signal;HPM_P1;HPM_P2
2023/12/26 00:00:30;;;;;;;10.82;3.58;;;;;;;9.15;100.00;100527.19;5082639;28;20032;-78
2023/12/26 00:02:55;;;;;;;13.77;4.05;;;;;;;9.14;100.00;100531.56;5082213;28;20020;-78
2023/12/26 00:05:21;;;;;;;14.70;4.00;;;;;;;9.15;100.00;100524.56;5067107;28;20055;-79
2023/12/26 00:07:47;;;;;;;13.80;3.85;;;;;;;9.15;100.00;100529.84;5083341;28;20047;-79
2023/12/26 00:10:15;;;;;;;12.30;3.85;;;;;;;9.16;100.00;100535.13;5083623;28;20468;-78
2023/12/26 00:12:42;;;;;;;11.77;3.97;;;;;;;9.14;100.00;100523.66;5084122;28;20055;-78
2023/12/26 00:15:08;;;;;;;12.15;3.90;;;;;;;9.13;100.00;100531.56;5082839;28;20484;-79
2023/12/26 00:17:33;;;;;;;11.73;3.90;;;;;;;9.14;100.00;100528.06;5084953;28;20057;-79
2023/12/26 00:19:58;;;;;;;13.73;3.80;;;;;;;9.13;100.00;100536.84;5081995;28;20067;-79
2023/12/26 00:22:24;;;;;;;16.30;4.10;;;;;;;9.08;100.00;100528.91;5085258;28;20059;-79
2023/12/26 00:24:49;;;;;;;15.05;4.00;;;;;;;9.05;100.00;100520.97;5064453;28;20028;-79
2023/12/26 00:27:15;;;;;;;15.75;4.00;;;;;;;9.04;100.00;100513.94;5065651;28;20028;-76
2023/12/26 00:29:40;;;;;;;14.02;4.00;;;;;;;9.05;100.00;100536.81;5083585;28;20473;-77
2023/12/26 00:32:05;;;;;;;14.73;3.95;;;;;;;9.04;100.00;100514.84;5082163;28;20024;-77
2023/12/26 00:34:31;;;;;;;14.20;4.13;;;;;;;9.01;100.00;100530.66;5084988;28;20031;-76
2023/12/26 00:36:56;;;;;;;12.95;3.80;;;;;;;9.03;100.00;100520.97;5063408;28;20037;-76
2023/12/26 00:39:21;;;;;;;12.30;3.90;;;;;;;9.01;100.00;100529.75;5066474;28;20024;-76
2023/12/26 00:41:47;;;;;;;15.02;3.70;;;;;;;8.99;100.00;100520.97;5082685;28;20090;-76
2023/12/26 00:44:12;;;;;;;13.45;3.72;;;;;;;8.97;100.00;100526.22;5065086;28;20032;-77
2023/12/26 00:46:38;;;;;;;12.38;3.63;;;;;;;8.96;100.00;100527.09;5083801;28;20024;-76
2023/12/26 00:49:03;;;;;;;13.65;3.80;;;;;;;8.95;100.00;100532.34;5052394;28;20029;-79
2023/12/26 00:51:30;;;;;;;14.57;4.00;;;;;;;8.93;100.00;100537.63;5084855;28;20039;-80
2023/12/26 00:53:56;;;;;;;14.55;3.67;;;;;;;8.96;100.00;100537.63;5081519;28;20020;-80
2023/12/26 00:56:21;;;;;;;12.63;3.50;;;;;;;8.92;100.00;100566.59;5084130;28;20501;-79
2023/12/26 00:58:46;;;;;;;12.15;3.53;;;;;;;8.93;100.00;100547.25;5064119;28;20040;-78
2023/12/26 01:01:12;;;;;;;11.68;3.30;;;;;;;8.90;100.00;100550.78;5064821;28;20025;-79
2023/12/26 01:03:37;;;;;;;12.15;3.75;;;;;;;8.89;100.00;100546.38;5083622;28;20049;-79
2023/12/26 01:06:03;;;;;;;13.63;3.60;;;;;;;8.92;100.00;100549.03;5063052;28;20434;-79
2023/12/26 01:08:28;;;;;;;12.82;3.60;;;;;;;8.92;100.00;100543.75;5084570;28;20115;-79
2023/12/26 01:10:53;;;;;;;14.35;3.63;;;;;;;8.92;100.00;100556.06;5081065;28;20119;-76
2023/12/26 01:13:19;;;;;;;11.45;3.55;;;;;;;8.92;100.00;100546.38;5083194;28;20045;-75
2023/12/26 01:15:45;;;;;;;12.40;3.55;;;;;;;8.92;100.00;100538.47;5082606;28;20115;-75
2023/12/26 01:18:10;;;;;;;11.07;3.80;;;;;;;8.91;100.00;100557.78;5082296;28;20036;-77
2023/12/26 01:20:35;;;;;;;11.43;4.15;;;;;;;8.91;100.00;100552.53;5083726;28;20028;-76
2023/12/26 01:23:02;;;;;;;11.32;4.00;;;;;;;8.91;100.00;100555.16;5081106;28;20039;-75
2023/12/26 01:25:28;;;;;;;13.90;4.22;;;;;;;8.91;100.00;100560.44;5084459;28;20024;-77
2023/12/26 01:27:53;;;;;;;12.10;4.20;;;;;;;8.93;100.00;100553.44;5081358;28;20036;-78
2023/12/26 01:30:19;;;;;;;14.05;4.35;;;;;;;8.95;100.00;100550.81;5039496;28;20021;-79
2023/12/26 01:32:44;;;;;;;13.70;4.10;;;;;;;8.93;100.00;100553.44;5082157;28;20051;-79
2023/12/26 01:35:10;;;;;;;14.15;4.63;;;;;;;8.96;100.00;100589.50;5082114;28;20396;-79
2023/12/26 01:37:35;;;;;;;13.55;4.70;;;;;;;8.94;100.00;100563.13;5083406;28;20123;-78
2023/12/26 01:40:00;;;;;;;15.25;5.10;;;;;;;8.93;100.00;100563.97;5080841;28;20060;-79
2023/12/26 01:42:26;;;;;;;14.88;4.95;;;;;;;8.94;100.00;100576.31;5084174;28;20114;-77
2023/12/26 01:44:51;;;;;;;15.68;5.10;;;;;;;8.95;100.00;100577.16;5081149;28;20029;-79
2023/12/26 01:47:17;;;;;;;18.55;5.57;;;;;;;8.92;100.00;100578.03;5065119;28;20021;-79
2023/12/26 01:49:44;;;;;;;15.48;5.07;;;;;;;8.92;100.00;100588.56;5086562;28;20020;-79
2023/12/26 01:52:11;;;;;;;15.43;4.90;;;;;;;8.92;100.00;100582.44;5085496;28;20025;-80
2023/12/26 01:54:38;;;;;;;15.60;4.80;;;;;;;8.92;100.00;100587.69;5087300;28;20030;-80
2023/12/26 01:57:06;;;;;;;16.20;5.00;;;;;;;8.97;100.00;100594.78;5084772;28;20513;-79
2023/12/26 01:59:36;;;;;;;16.73;5.30;;;;;;;8.93;100.00;100608.78;5087838;28;20047;-80
2023/12/26 02:02:03;;;;;;;17.75;5.97;;;;;;;8.92;100.00;100599.13;5084287;28;20044;-77
2023/12/26 02:04:29;;;;;;;17.90;6.30;;;;;;;8.92;100.00;100591.22;5088191;28;20421;-75
2023/12/26 02:06:57;;;;;;;17.48;6.30;;;;;;;8.91;100.00;100597.34;5084422;28;20032;-80
2023/12/26 02:09:24;;;;;;;17.23;5.95;;;;;;;8.92;100.00;100592.97;5086862;28;20035;-80
2023/12/26 02:11:50;;;;;;;16.55;5.65;;;;;;;8.91;100.00;100607.88;5085303;28;20016;-76
2023/12/26 02:14:15;;;;;;;16.20;5.70;;;;;;;8.91;100.00;100610.53;5085683;28;20049;-76
2023/12/26 02:16:43;;;;;;;16.85;5.72;;;;;;;8.93;100.00;100611.44;5086217;28;20413;-76
2023/12/26 02:19:09;;;;;;;16.45;5.30;;;;;;;8.93;100.00;100621.97;5085317;28;20050;-79
2023/12/26 02:21:34;;;;;;;16.15;5.60;;;;;;;8.92;100.00;100596.47;5087026;28;20020;-79
2023/12/26 02:23:59;;;;;;;16.30;5.70;;;;;;;8.93;100.00;100605.25;5066158;28;20438;-80
2023/12/26 02:26:27;;;;;;;15.50;5.63;;;;;;;8.92;100.00;100619.34;5087699;28;20122;-79
2023/12/26 02:28:54;;;;;;;17.65;5.65;;;;;;;8.90;100.00;100607.00;5084556;28;20119;-76
2023/12/26 02:31:20;;;;;;;16.13;6.18;;;;;;;8.93;100.00;100615.81;5086398;28;20032;-76
2023/12/26 02:33:47;;;;;;;16.70;6.20;;;;;;;8.92;100.00;100608.78;5085599;28;20031;-80
2023/12/26 02:36:13;;;;;;;16.73;6.05;;;;;;;8.93;100.00;100608.78;5085433;28;20114;-77
2023/12/26 02:38:39;;;;;;;17.17;6.05;;;;;;;8.95;100.00;100617.59;5086473;28;20059;-77
2023/12/26 02:41:05;;;;;;;18.13;6.38;;;;;;;8.95;100.00;100593.84;5084454;28;20064;-77
2023/12/26 02:43:31;;;;;;;16.42;5.82;;;;;;;8.93;100.00;100600.88;5087292;28;20456;-75
2023/12/26 02:45:56;;;;;;;17.05;6.10;;;;;;;8.96;100.00;100611.44;5065543;28;20032;-77
2023/12/26 02:48:21;;;;;;;17.35;6.10;;;;;;;8.97;100.00;100607.97;5083935;28;20032;-81
2023/12/26 02:50:47;;;;;;;17.15;6.43;;;;;;;8.97;100.00;100602.69;5067610;28;20384;-81
2023/12/26 02:53:13;;;;;;;18.77;7.30;;;;;;;8.95;100.00;100609.69;5085517;28;20026;-81
2023/12/26 02:55:38;;;;;;;18.50;7.85;;;;;;;8.96;100.00;100608.81;5084575;28;20038;-81
2023/12/26 02:58:04;;;;;;;19.42;8.57;;;;;;;8.95;100.00;100612.31;5086656;28;20156;-80
2023/12/26 03:00:30;;;;;;;19.98;8.70;;;;;;;8.95;100.00;100614.94;5082418;28;20109;-78
2023/12/26 03:02:56;;;;;;;19.27;8.82;;;;;;;8.96;100.00;100611.44;5086681;28;20483;-77
2023/12/26 03:05:22;;;;;;;20.27;9.02;;;;;;;8.95;100.00;100625.50;5065900;28;20028;-76
2023/12/26 03:07:47;;;;;;;20.73;9.70;;;;;;;8.96;100.00;100637.81;5085373;28;20033;-78
2023/12/26 03:10:13;;;;;;;21.23;10.60;;;;;;;8.98;100.00;100646.59;5085674;28;20467;-79
2023/12/26 03:12:39;;;;;;;21.30;10.38;;;;;;;9.02;100.00;100645.75;5083895;28;20487;-78
2023/12/26 03:15:05;;;;;;;22.13;10.85;;;;;;;8.98;100.00;100661.56;5086090;28;20089;-75
2023/12/26 03:17:30;;;;;;;22.77;11.35;;;;;;;8.94;100.00;100650.13;5082793;28;20087;-74
2023/12/26 03:19:56;;;;;;;21.25;9.80;;;;;;;8.87;100.00;100654.44;5085956;28;20030;-75
2023/12/26 03:22:22;;;;;;;20.65;8.93;;;;;;;8.87;100.00;100657.09;5083815;28;20093;-75
2023/12/26 03:24:47;;;;;;;21.50;8.73;;;;;;;8.83;100.00;100657.91;5084705;28;20028;-74
2023/12/26 03:27:14;;;;;;;20.52;8.45;;;;;;;8.85;100.00;100660.56;5084637;28;20081;-74
2023/12/26 03:29:39;;;;;;;20.67;8.00;;;;;;;8.79;100.00;100658.75;5083787;28;20052;-75
2023/12/26 03:32:05;;;;;;;20.58;7.95;;;;;;;8.73;100.00;100677.16;5085583;28;20063;-75
2023/12/26 03:34:30;;;;;;;20.98;8.02;;;;;;;8.73;100.00;100659.59;5082396;28;20464;-74
2023/12/26 03:36:56;;;;;;;20.08;7.47;;;;;;;8.75;100.00;100661.34;5085838;28;20024;-78
2023/12/26 03:39:21;;;;;;;22.35;7.80;;;;;;;8.76;100.00;100663.13;5083218;28;20101;-75
2023/12/26 03:41:48;;;;;;;20.52;7.80;;;;;;;8.70;100.00;100661.31;5084326;28;20115;-74
2023/12/26 03:44:17;;;;;;;21.15;7.35;;;;;;;8.74;100.00;100657.84;5084394;28;20498;-77
2023/12/26 03:46:43;;;;;;;19.98;6.30;;;;;;;8.72;100.00;100676.28;5083689;28;20058;-74
2023/12/26 03:49:09;;;;;;;20.35;6.10;;;;;;;8.72;100.00;100675.38;5084689;28;20504;-77
2023/12/26 03:51:34;;;;;;;19.10;6.00;;;;;;;8.73;100.00;100678.03;5064748;28;20132;-75
2023/12/26 03:54:00;;;;;;;16.98;4.90;;;;;;;8.74;100.00;100668.41;5085848;28;20081;-78
2023/12/26 03:56:33;;;;;;;18.00;4.70;;;;;;;8.79;100.00;100676.34;5082281;28;20035;-75
2023/12/26 03:58:59;;;;;;;;;;;;;;;8.73;100.00;100683.31;5082594;28;20024;-75
2023/12/26 04:01:24;;;;;;;17.75;4.35;;;;;;;8.70;100.00;100682.41;5084928;28;19916;-75
2023/12/26 04:03:50;;;;;;;17.63;4.53;;;;;;;8.73;100.00;100683.31;5065128;28;20032;-74
2023/12/26 04:06:16;;;;;;;18.02;5.10;;;;;;;8.75;100.00;100674.53;5083845;28;20508;-76
2023/12/26 04:08:41;;;;;;;19.63;5.38;;;;;;;8.77;100.00;100707.94;5084189;28;20032;-74
2023/12/26 04:11:09;;;;;;;19.38;5.28;;;;;;;8.84;100.00;100707.16;5082059;28;20054;-74
2023/12/26 04:13:34;;;;;;;20.42;5.10;;;;;;;8.82;100.00;100708.00;5085117;28;20461;-75
2023/12/26 04:16:00;;;;;;;19.67;4.90;;;;;;;8.79;100.00;100716.75;5081619;28;20028;-75
2023/12/26 04:18:25;;;;;;;18.75;4.40;;;;;;;8.78;100.00;100711.47;5084679;28;20081;-76
2023/12/26 04:20:51;;;;;;;16.92;4.45;;;;;;;8.74;100.00;100710.56;5083029;28;20147;-76
2023/12/26 04:23:16;;;;;;;19.75;4.60;;;;;;;8.79;100.00;100708.84;5083441;28;20035;-77
2023/12/26 04:25:42;;;;;;;19.20;3.85;;;;;;;8.80;100.00;100709.75;5084044;28;20024;-78
2023/12/26 04:28:07;;;;;;;14.65;3.10;;;;;;;8.84;100.00;100698.34;5082066;28;20387;-76
2023/12/26 04:30:32;;;;;;;19.30;3.53;;;;;;;8.73;100.00;100717.56;5084906;28;20475;-78
2023/12/26 04:32:58;;;;;;;16.30;3.13;;;;;;;8.74;100.00;100726.38;5081850;28;20107;-77
2023/12/26 04:35:23;;;;;;;14.45;2.78;;;;;;;8.71;100.00;100713.16;5084401;28;20532;-77
2023/12/26 04:37:49;;;;;;;16.63;3.30;;;;;;;8.63;100.00;100728.00;5082492;28;20107;-75
2023/12/26 04:40:14;;;;;;;13.73;2.70;;;;;;;8.58;100.00;100730.59;5065084;28;20120;-74
2023/12/26 04:42:39;;;;;;;16.58;2.92;;;;;;;8.59;100.00;100736.75;5083845;28;20027;-74
2023/12/26 04:45:05;;;;;;;14.38;2.72;;;;;;;8.59;100.00;100726.22;5081358;28;20094;-74
2023/12/26 04:47:31;;;;;;;15.00;2.83;;;;;;;8.50;100.00;100745.44;5067005;28;20059;-75
2023/12/26 04:49:58;;;;;;;18.98;2.72;;;;;;;8.55;100.00;100752.53;5081302;28;20064;-75
2023/12/26 04:52:23;;;;;;;11.63;2.50;;;;;;;8.55;100.00;100739.34;5084075;28;20059;-75
2023/12/26 04:54:49;;;;;;;15.25;2.90;;;;;;;8.55;100.00;100756.91;5082726;28;20430;-80
2023/12/26 04:57:14;;;;;;;18.58;2.88;;;;;;;8.51;100.00;100765.66;5082670;28;20044;-75
2023/12/26 04:59:39;;;;;;;17.13;2.97;;;;;;;8.54;100.00;100771.81;5083991;28;20090;-76
2023/12/26 05:02:05;;;;;;;18.48;2.80;;;;;;;8.44;100.00;100769.03;5081469;28;20498;-78
2023/12/26 05:04:30;;;;;;;16.48;2.90;;;;;;;8.39;100.00;100779.53;5084614;28;20110;-80
2023/12/26 05:06:56;;;;;;;18.13;3.00;;;;;;;8.43;100.00;100793.63;5081946;28;20032;-77
2023/12/26 05:09:21;;;;;;;16.55;3.13;;;;;;;8.42;100.00;100791.84;5083392;28;20034;-77
2023/12/26 05:11:47;;;;;;;16.83;3.00;;;;;;;8.47;100.00;100793.69;5064750;28;20474;-76
2023/12/26 05:14:12;;;;;;;16.38;2.97;;;;;;;8.41;100.00;100796.22;5082249;28;20059;-76
2023/12/26 05:16:42;;;;;;;17.80;2.90;;;;;;;8.41;100.00;100784.81;5083934;28;20028;-77
2023/12/26 05:19:08;;;;;;;16.00;2.78;;;;;;;8.32;100.00;100809.28;5081579;28;20028;-77
2023/12/26 05:21:35;;;;;;;16.42;2.65;;;;;;;8.36;100.00;100796.19;5084099;28;20501;-76
2023/12/26 05:24:00;;;;;;;16.80;2.78;;;;;;;8.39;100.00;100811.16;5080582;28;20033;-77
2023/12/26 05:26:25;;;;;;;18.70;2.95;;;;;;;8.33;100.00;100804.03;5083857;28;20024;-78
2023/12/26 05:28:51;;;;;;;17.58;2.80;;;;;;;8.34;100.00;100823.34;5064205;28;20028;-80
2023/12/26 05:31:20;;;;;;;18.55;3.00;;;;;;;8.27;100.00;100822.41;5082695;28;20037;-76
2023/12/26 05:33:45;;;;;;;16.48;2.75;;;;;;;8.27;100.00;100809.25;5083090;28;20058;-83
2023/12/26 05:36:11;;;;;;;18.05;2.70;;;;;;;8.15;100.00;100825.72;5082496;28;20025;-78
2023/12/26 05:38:39;;;;;;;13.70;2.75;;;;;;;8.25;100.00;100845.19;5083712;28;20032;-74
2023/12/26 05:41:05;;;;;;;15.93;2.55;;;;;;;8.15;100.00;100823.09;5080739;28;20086;-74
2023/12/26 05:43:31;;;;;;;15.90;2.55;;;;;;;8.13;100.00;100831.88;5084249;28;20028;-75
2023/12/26 05:45:57;;;;;;;17.80;2.78;;;;;;;8.05;100.00;100817.69;5080943;28;20086;-74
2023/12/26 05:48:22;;;;;;;17.98;3.13;;;;;;;8.10;100.00;100843.22;5083101;28;20127;-77
2023/12/26 05:50:48;;;;;;;15.23;2.70;;;;;;;7.98;100.00;100859.72;5082054;28;20081;-79
2023/12/26 05:53:13;;;;;;;14.27;2.55;;;;;;;7.89;100.00;100849.03;5081720;28;20031;-74
2023/12/26 05:55:39;;;;;;;13.77;2.60;;;;;;;7.99;100.00;100865.88;5083238;28;20020;-75
2023/12/26 05:58:04;;;;;;;18.17;2.60;;;;;;;7.85;100.00;100863.03;5080441;28;20032;-75
2023/12/26 06:00:30;;;;;;;13.82;2.55;;;;;;;7.86;100.00;100877.94;5066000;28;20024;-74
2023/12/26 06:02:55;;;;;;;14.93;2.65;;;;;;;7.78;100.00;100872.56;5080834;28;20089;-74
2023/12/26 06:05:20;;;;;;;16.92;2.70;;;;;;;7.79;100.00;100877.00;5082827;28;20052;-74
2023/12/26 06:07:46;;;;;;;16.13;2.78;;;;;;;7.72;100.00;100874.22;5082241;28;20028;-77
2023/12/26 06:10:11;;;;;;;15.38;2.80;;;;;;;7.63;100.00;100883.75;5081424;28;20440;-76
2023/12/26 06:12:37;;;;;;;13.65;2.45;;;;;;;7.70;100.00;100875.94;5083389;28;20024;-74
2023/12/26 06:15:02;;;;;;;15.63;2.47;;;;;;;7.83;100.00;100867.38;5080235;28;20137;-74
2023/12/26 06:17:29;;;;;;;14.32;2.50;;;;;;;7.69;100.00;100872.44;5083541;28;20122;-74
2023/12/26 06:19:54;;;;;;;14.43;2.38;;;;;;;7.77;100.00;100877.81;5063114;28;20032;-75
2023/12/26 06:22:20;;;;;;;15.35;2.58;;;;;;;7.83;100.00;100881.44;5082364;28;20044;-74
2023/12/26 06:24:45;;;;;;;15.48;2.97;;;;;;;7.78;100.00;100895.38;5082334;28;20485;-76
2023/12/26 06:27:11;;;;;;;11.35;2.60;;;;;;;7.89;100.00;100906.06;5081040;28;20040;-78
2023/12/26 06:29:36;;;;;;;18.75;2.75;;;;;;;7.79;100.00;100908.56;5083327;28;20036;-75
2023/12/26 06:32:01;;;;;;;14.25;2.70;;;;;;;7.73;100.00;100915.47;5080242;28;20031;-78
2023/12/26 06:34:27;;;;;;;14.68;2.80;;;;;;;7.73;100.00;100923.34;5085622;28;20111;-78
2023/12/26 06:36:52;;;;;;;15.82;2.67;;;;;;;7.71;100.00;100922.47;5066649;28;20021;-79
2023/12/26 06:39:18;;;;;;;16.92;2.72;;;;;;;7.61;100.00;100921.41;5085780;28;20115;-77
2023/12/26 06:41:44;;;;;;;13.43;2.65;;;;;;;7.57;100.00;100925.75;5085931;28;20032;-79
2023/12/26 06:44:10;;;;;;;17.08;2.75;;;;;;;7.46;100.00;100919.38;5084384;28;20025;-77
2023/12/26 06:46:42;;;;;;;17.60;2.75;;;;;;;7.42;100.00;100930.69;5087581;28;20077;-75
2023/12/26 06:49:08;;;;;;;18.95;2.75;;;;;;;7.29;100.00;100933.09;5066204;28;20425;-76
2023/12/26 06:51:37;;;;;;;17.98;2.70;;;;;;;7.24;100.00;100936.50;5087095;28;20043;-76
2023/12/26 06:54:03;;;;;;;18.23;2.75;;;;;;;7.14;100.00;100938.94;5069932;28;20479;-74
2023/12/26 06:56:28;;;;;;;17.42;2.55;;;;;;;7.04;100.00;100939.63;5083909;28;20067;-77
2023/12/26 06:58:54;;;;;;;17.25;2.90;;;;;;;7.03;100.00;100948.34;5086117;28;20391;-74
2023/12/26 07:01:19;;;;;;;15.18;2.50;;;;;;;7.06;100.00;100955.41;5085199;28;20036;-78
2023/12/26 07:03:45;;;;;;;17.58;2.70;;;;;;;7.04;100.00;100958.00;5085133;28;20082;-78
2023/12/26 07:06:10;;;;;;;15.88;2.88;;;;;;;6.97;100.00;100959.66;5086456;28;20024;-79
2023/12/26 07:08:35;;;;;;;16.10;2.80;;;;;;;7.02;100.00;100971.97;5083926;28;20032;-80
2023/12/26 07:11:01;;;;;;;16.63;2.70;;;;;;;7.08;100.00;100980.88;5068884;28;20459;-80
2023/12/26 07:13:27;;;;;;;15.82;2.80;;;;;;;7.09;100.00;100984.38;5083637;28;20082;-79
2023/12/26 07:15:52;;;;;;;16.52;2.90;;;;;;;7.08;100.00;100999.28;5085988;28;20115;-80
2023/12/26 07:18:18;;;;;;;19.77;2.78;;;;;;;7.05;100.00;100998.31;5066940;28;20064;-80
2023/12/26 07:20:43;;;;;;;14.77;2.70;;;;;;;6.96;100.00;100999.91;5084797;28;20033;-79
2023/12/26 07:23:09;;;;;;;18.65;3.00;;;;;;;6.94;100.00;101008.63;5086194;28;20028;-80
2023/12/26 07:25:34;;;;;;;16.40;2.83;;;;;;;6.94;100.00;101021.75;5083301;28;20020;-80
2023/12/26 07:27:59;;;;;;;17.25;2.88;;;;;;;6.96;100.00;101023.56;5086871;28;20044;-80
2023/12/26 07:30:25;;;;;;;17.38;2.80;;;;;;;7.05;100.00;101029.88;5083633;28;20441;-80
2023/12/26 07:32:50;;;;;;;18.63;3.05;;;;;;;7.11;100.00;101024.75;5085156;28;20109;-78
2023/12/26 07:35:16;;;;;;;16.67;2.90;;;;;;;7.15;100.00;101021.34;5066899;28;20040;-79
2023/12/26 07:37:41;;;;;;;16.83;2.80;;;;;;;7.24;100.00;101010.13;5083711;28;20042;-77
2023/12/26 07:40:07;;;;;;;15.10;2.60;;;;;;;7.27;100.00;101015.47;5085815;28;20028;-74
2023/12/26 07:42:32;;;;;;;15.77;2.67;;;;;;;7.31;100.00;101012.00;5082579;28;20029;-73
2023/12/26 07:44:58;;;;;;;17.75;2.70;;;;;;;7.32;100.00;101022.59;5084878;28;20039;-74
2023/12/26 07:47:23;;;;;;;18.65;2.90;;;;;;;7.30;100.00;101029.53;5083599;28;20525;-74
2023/12/26 07:49:49;;;;;;;17.45;2.75;;;;;;;7.28;100.00;101041.78;5084271;28;20029;-75
2023/12/26 07:52:14;;;;;;;19.33;3.10;;;;;;;7.23;100.00;101034.66;5084353;28;20490;-76
2023/12/26 07:54:40;;;;;;;14.27;2.70;;;;;;;7.21;100.00;101047.75;5082891;28;20052;-74
2023/12/26 07:57:05;;;;;;;16.63;2.97;;;;;;;7.19;100.00;101059.97;5085469;28;20054;-74
2023/12/26 07:59:31;;;;;;;17.15;3.10;;;;;;;7.11;100.00;101062.44;5082417;28;20021;-74
2023/12/26 08:01:56;;;;;;;17.52;2.85;;;;;;;7.06;100.00;101073.72;5085321;28;20024;-74
2023/12/26 08:04:22;;;;;;;19.42;3.03;;;;;;;6.98;100.00;101063.91;5083140;28;20028;-74
2023/12/26 08:06:48;;;;;;;18.20;2.90;;;;;;;6.94;100.00;101069.94;5083596;28;20021;-74
2023/12/26 08:09:13;;;;;;;19.67;3.15;;;;;;;6.96;100.00;101075.22;5084470;28;20020;-74
2023/12/26 08:11:40;;;;;;;16.48;2.95;;;;;;;6.93;100.00;101076.06;5082852;28;20040;-83
2023/12/26 08:14:05;;;;;;;16.70;2.80;;;;;;;6.97;100.00;101075.31;5085171;28;20453;-82
2023/12/26 08:16:30;;;;;;;16.92;3.10;;;;;;;7.00;100.00;101073.59;5082053;28;20059;-80
2023/12/26 08:18:57;;;;;;;20.63;3.05;;;;;;;6.95;100.00;101092.75;5084766;28;20466;-76
2023/12/26 08:21:23;;;;;;;16.40;2.85;;;;;;;6.89;100.00;101095.25;5082628;28;20538;-79
2023/12/26 08:23:48;;;;;;;19.40;3.10;;;;;;;6.93;100.00;101110.25;5083634;28;20108;-74
2023/12/26 08:26:13;;;;;;;19.98;3.15;;;;;;;6.92;100.00;101104.94;5083933;28;20115;-77
2023/12/26 08:28:39;;;;;;;17.70;2.95;;;;;;;6.88;100.00;101121.50;5081956;28;20031;-77
2023/12/26 08:31:04;;;;;;;19.10;2.97;;;;;;;6.93;100.00;101123.38;5085352;28;20059;-76
2023/12/26 08:33:31;;;;;;;19.40;3.40;;;;;;;6.93;100.00;101133.00;5081416;28;20067;-78
2023/12/26 08:35:56;;;;;;;19.38;3.40;;;;;;;6.91;100.00;101138.22;5084430;28;20024;-77
2023/12/26 08:38:23;;;;;;;19.13;2.97;;;;;;;6.94;100.00;101140.91;5082423;28;20112;-80
2023/12/26 08:40:49;;;;;;;19.60;3.30;;;;;;;6.94;100.00;101159.31;5082943;28;20040;-79
2023/12/26 08:43:14;;;;;;;16.35;2.80;;;;;;;6.96;100.00;101168.13;5083754;28;20042;-80
2023/12/26 08:45:40;;;;;;;18.45;3.38;;;;;;;6.99;100.00;101162.06;5081652;28;20024;-79
2023/12/26 08:48:06;;;;;;;20.75;3.60;;;;;;;7.08;100.00;101161.41;5084644;28;20080;-80
2023/12/26 08:50:32;;;;;;;18.02;3.15;;;;;;;7.05;100.00;101164.84;5066841;28;20040;-79
2023/12/26 08:52:57;;;;;;;19.52;3.38;;;;;;;7.05;100.00;101177.06;5081795;28;20066;-80
2023/12/26 08:55:22;;;;;;;17.92;3.10;;;;;;;7.04;100.00;101170.94;5083492;28;20450;-77
2023/12/26 08:57:48;;;;;;;18.67;3.03;;;;;;;7.04;100.00;101175.31;5082091;28;20032;-79
2023/12/26 09:00:14;;;;;;;20.98;3.25;;;;;;;7.08;100.00;101178.06;5082054;28;20029;-74
2023/12/26 09:02:42;;;;;;;20.13;3.33;;;;;;;7.12;100.00;101168.50;5083919;28;20165;-74
2023/12/26 09:05:08;;;;;;;18.67;3.35;;;;;;;7.22;100.00;101191.50;5035360;28;20039;-75
2023/12/26 09:07:33;;;;;;;19.25;3.22;;;;;;;7.36;100.00;101198.88;5084478;28;20387;-80
2023/12/26 09:09:59;;;;;;;19.48;3.42;;;;;;;7.76;100.00;101205.00;5081098;28;20464;-75
2023/12/26 09:12:24;;;;;;;18.25;3.20;;;;;;;8.25;100.00;101195.47;5083687;28;20170;-74
2023/12/26 09:14:50;;;;;;;18.75;3.10;;;;;;;8.41;100.00;101207.19;5082355;28;20058;-74
2023/12/26 09:17:16;;;;;;;17.42;3.10;;;;;;;8.31;100.00;101200.84;5082123;28;20044;-74
2023/12/26 09:19:41;;;;;;;19.98;3.30;;;;;;;8.56;100.00;101188.19;5083923;28;20030;-74
2023/12/26 09:22:07;;;;;;;18.40;3.50;;;;;;;8.72;100.00;101195.53;5080921;28;20571;-74
2023/12/26 09:24:32;;;;;;;18.25;3.30;;;;;;;8.85;100.00;101204.53;5084510;28;20536;-74
2023/12/26 09:26:58;;;;;;;18.25;3.33;;;;;;;8.95;100.00;101207.31;5081512;28;20032;-74
2023/12/26 09:29:23;;;;;;;17.92;3.30;;;;;;;8.77;100.00;101205.25;5083262;28;20024;-75
2023/12/26 09:31:49;;;;;;;20.13;3.20;;;;;;;8.50;100.00;101211.78;5064794;28;20383;-77
2023/12/26 09:34:14;;;;;;;18.95;3.22;;;;;;;8.32;100.00;101215.81;5082092;28;20064;-77
2023/12/26 09:36:40;;;;;;;18.50;2.90;;;;;;;8.52;100.00;101226.78;5083627;28;20032;-75
2023/12/26 09:39:05;;;;;;;18.25;2.90;;;;;;;8.69;100.00;101239.38;5081065;28;20036;-74
2023/12/26 09:41:30;;;;;;;21.50;3.20;;;;;;;8.67;100.00;101252.53;5084181;28;20032;-80
2023/12/26 09:43:56;;;;;;;21.00;3.53;;;;;;;8.42;100.00;101245.88;5081663;28;20033;-80
2023/12/26 09:46:22;;;;;;;18.70;3.47;;;;;;;8.10;100.00;101261.03;5063112;28;20032;-79
2023/12/26 09:48:47;;;;;;;18.13;3.30;;;;;;;8.00;100.00;101266.06;5085167;28;20475;-78
2023/12/26 09:51:21;;;;;;;20.45;3.33;;;;;;;7.79;100.00;101265.59;5080095;28;20059;-79
2023/12/26 09:53:54;;;;;;;19.55;3.40;;;;;;;7.65;100.00;101260.03;5082521;28;20483;-79
2023/12/26 09:56:21;;;;;;;19.15;3.40;;;;;;;7.57;100.00;101280.91;5082565;28;20032;-80
2023/12/26 09:58:48;;;;;;;18.52;3.00;;;;;;;7.52;100.00;101285.16;5082268;28;20496;-78
2023/12/26 10:01:14;;;;;;;21.20;3.40;;;;;;;7.48;100.00;101285.94;5083445;28;20043;-79
2023/12/26 10:03:41;;;;;;;21.65;3.75;;;;;;;7.51;100.00;101299.16;5081142;28;20025;-76
2023/12/26 10:06:08;;;;;;;17.55;3.20;;;;;;;7.60;100.00;101302.03;5084221;28;20049;-75
2023/12/26 10:08:33;;;;;;;19.90;3.45;;;;;;;8.29;100.00;101304.44;5084577;28;20115;-74
2023/12/26 10:10:59;;;;;;;17.45;3.00;;;;;;;8.88;100.00;101303.88;5085221;28;20490;-79
2023/12/26 10:13:24;;;;;;;21.05;3.47;;;;;;;9.23;100.00;101293.06;5084609;28;20394;-80
2023/12/26 10:15:49;;;;;;;18.30;3.13;;;;;;;9.46;100.00;101295.19;5085781;28;20033;-80
2023/12/26 10:18:16;;;;;;;20.10;3.15;;;;;;;9.54;100.00;101306.78;5087137;28;20051;-77
2023/12/26 10:20:41;;;;;;;19.83;3.22;;;;;;;9.81;100.00;101306.28;5084020;28;20032;-78
2023/12/26 10:23:07;;;;;;;19.35;3.35;;;;;;;10.10;100.00;101317.25;5084076;28;20028;-77
2023/12/26 10:25:33;;;;;;;20.50;3.45;;;;;;;10.25;100.00;101319.25;5086851;28;20072;-77
2023/12/26 10:27:59;;;;;;;19.63;3.30;;;;;;;10.29;100.00;101328.09;5067096;28;20067;-79
2023/12/26 10:30:26;;;;;;;19.83;3.60;;;;;;;10.45;100.00;101330.09;5086082;28;20024;-75
2023/12/26 10:33:02;;;;;;;19.40;3.25;;;;;;;10.80;100.00;101324.34;5067969;28;20032;-76
2023/12/26 10:35:27;;;;;;;17.20;3.08;;;;;;;11.06;100.00;101314.91;5086056;28;20032;-88
2023/12/26 10:37:53;;;;;;;19.75;2.90;;;;;;;11.03;100.00;101326.34;5085794;28;20089;-76
2023/12/26 10:40:19;;;;;;;17.83;2.80;;;;;;;11.01;100.00;101311.31;5085228;28;20032;-88
2023/12/26 10:42:49;;;;;;;17.98;3.40;;;;;;;10.97;100.00;101321.00;5086979;28;20093;-87
2023/12/26 10:45:14;;;;;;;18.23;3.45;;;;;;;11.07;100.00;101300.81;5084529;28;20115;-86
2023/12/26 10:47:43;;;;;;;19.67;3.35;;;;;;;11.11;100.00;101319.38;5087682;28;20086;-86
2023/12/26 10:50:10;;;;;;;19.50;3.05;;;;;;;11.32;100.00;101304.56;5084155;28;20035;-77
2023/12/26 10:52:41;;;;;;;17.73;2.97;;;;;;;11.49;100.00;101310.00;5087295;28;20375;-78
2023/12/26 10:55:08;;;;;;;17.73;3.28;;;;;;;11.77;100.00;101311.09;5065780;28;20073;-83
2023/12/26 10:57:34;;;;;;;18.88;3.15;;;;;;;11.62;100.00;101321.56;5086214;28;20024;-79
2023/12/26 13:52:07;;;;;;;21.85;3.30;;;;;;;8.76;100.00;101504.00;5086963;28;20530;-73
2023/12/26 13:55:10;;;;;;;17.63;2.90;;;;;;;8.98;100.00;101507.97;5087188;28;20467;-75
2023/12/26 13:58:13;;;;;;;18.80;3.20;;;;;;;8.81;100.00;101510.25;5087487;28;20039;-73
2023/12/26 14:01:16;;;;;;;19.65;3.45;;;;;;;8.83;100.00;101503.28;5087909;28;20420;-73
2023/12/26 14:04:19;;;;;;;18.45;3.20;;;;;;;8.75;100.00;101515.38;5084431;28;20036;-74